Time;durP1;ratioP1;P1;durP2;ratioP2;P2;SDS_P1;SDS_P2;PMS_P1;PMS_P2;Temp;Humidity;BMP_temperature;BMP_pressure;BME280_temperature;BME280_humidity;BME280_pressure;Samples;Min_cycle;Max_cycle;Signal;HPM_P1;HPM_P2
2021/07/22 00:05:05;;;;;;;25.55;13.75;;;16.30;99.90;;;;;;20897986;28;20097;-80
2021/07/22 00:15:06;;;;;;;22.08;13.80;;;16.30;99.90;;;;;;20888616;28;20033;-80
2021/07/22 00:25:08;;;;;;;22.30;12.60;;;16.20;99.90;;;;;;20876086;28;20033;-79
2021/07/22 00:35:10;;;;;;;20.55;13.05;;;16.20;99.90;;;;;;20840562;28;20034;-79
2021/07/22 00:45:11;;;;;;;24.00;13.07;;;16.20;99.90;;;;;;20852600;28;20033;-80
2021/07/22 00:55:16;;;;;;;23.52;12.77;;;16.00;99.90;;;;;;20864050;28;20068;-80
2021/07/22 01:05:17;;;;;;;24.40;12.70;;;15.90;99.90;;;;;;20877159;28;20081;-80
2021/07/22 01:15:18;;;;;;;17.25;11.52;;;15.90;99.90;;;;;;20845078;28;20041;-79
2021/07/22 01:25:22;;;;;;;20.95;12.75;;;15.90;99.90;;;;;;20866553;28;20041;-80
2021/07/22 01:35:26;;;;;;;22.15;13.85;;;15.70;99.90;;;;;;20868130;28;20036;-80
2021/07/22 01:45:26;;;;;;;27.00;14.57;;;15.60;99.90;;;;;;20869844;28;20042;-79
2021/07/22 01:55:29;;;;;;;28.20;14.43;;;15.40;99.90;;;;;;20874846;28;20036;-79
2021/07/22 02:05:35;;;;;;;23.20;14.30;;;15.50;99.90;;;;;;20864473;28;20040;-79
2021/07/22 02:15:38;;;;;;;29.37;14.07;;;15.30;99.90;;;;;;20864212;28;20116;-78
2021/07/22 02:25:39;;;;;;;24.08;13.23;;;15.10;99.90;;;;;;20832024;28;20040;-79
2021/07/22 02:35:41;;;;;;;29.00;13.93;;;15.20;99.90;;;;;;20874632;28;20514;-81
2021/07/22 02:46:09;;;;;;;24.30;14.38;;;15.20;99.90;;;;;;20896187;28;20071;-79
2021/07/22 02:56:16;;;;;;;25.02;12.93;;;15.10;99.90;;;;;;20884758;28;20061;-79
2021/07/22 03:06:19;;;;;;;25.35;14.27;;;14.90;99.90;;;;;;20874043;28;20060;-81
2021/07/22 03:16:34;;;;;;;26.23;15.38;;;14.90;99.90;;;;;;20925281;28;20041;-79
2021/07/22 03:26:56;;;;;;;35.03;13.65;;;14.80;99.90;;;;;;20877511;28;20443;-79
2021/07/22 03:36:58;;;;;;;21.77;13.52;;;14.60;99.90;;;;;;20798003;28;20034;-80
2021/07/22 03:46:59;;;;;;;24.10;13.87;;;14.50;99.90;;;;;;20843410;28;20033;-80
2021/07/22 03:57:02;;;;;;;28.53;13.30;;;14.30;99.90;;;;;;20824019;28;20029;-80
2021/07/22 04:07:03;;;;;;;22.50;13.05;;;14.30;99.90;;;;;;20748940;28;20032;-77
2021/07/22 04:17:33;;;;;;;27.92;13.18;;;14.20;99.90;;;;;;20869765;28;20037;-79
2021/07/22 04:27:36;;;;;;;27.58;13.23;;;14.00;99.90;;;;;;20898846;28;20041;-81
2021/07/22 04:37:45;;;;;;;26.98;13.18;;;14.00;99.90;;;;;;20869218;28;20037;-82
2021/07/22 04:48:18;;;;;;;26.58;14.30;;;14.20;99.90;;;;;;20897229;28;20033;-78
2021/07/22 04:58:21;;;;;;;25.73;13.55;;;14.40;99.90;;;;;;20794970;28;20045;-79
2021/07/22 05:08:23;;;;;;;24.80;14.88;;;14.70;99.90;;;;;;20853670;28;20033;-80
2021/07/22 05:18:37;;;;;;;32.38;15.98;;;15.20;99.90;;;;;;20858906;28;20030;-81
2021/07/22 05:29:17;;;;;;;30.15;15.13;;;15.70;99.90;;;;;;20850584;28;20040;-80
2021/07/22 05:39:34;;;;;;;29.10;15.85;;;16.10;99.90;;;;;;20843626;28;20041;-82
2021/07/22 05:49:35;;;;;;;28.73;17.47;;;16.50;99.90;;;;;;20771173;22;20116;-75
2021/07/22 05:59:36;;;;;;;25.90;15.10;;;16.70;99.90;;;;;;20742749;28;20037;-77
2021/07/22 06:09:37;;;;;;;28.17;15.93;;;17.10;99.90;;;;;;20756155;28;20038;-76
2021/07/22 06:19:38;;;;;;;29.43;14.80;;;17.40;99.90;;;;;;20740279;28;20443;-76
2021/07/22 06:29:39;;;;;;;43.03;17.47;;;17.80;99.90;;;;;;20739553;28;20034;-77
2021/07/22 06:39:40;;;;;;;27.00;13.95;;;18.30;99.90;;;;;;20756460;28;20025;-76
2021/07/22 06:49:41;;;;;;;26.13;14.30;;;18.80;99.90;;;;;;20737990;28;20033;-76
2021/07/22 06:59:42;;;;;;;27.80;13.67;;;18.90;99.90;;;;;;20755126;28;20092;-77
2021/07/22 07:09:43;;;;;;;25.27;13.67;;;19.20;99.90;;;;;;20737042;28;20038;-77
2021/07/22 07:19:44;;;;;;;30.17;14.30;;;19.70;99.90;;;;;;20754775;28;20416;-76
2021/07/22 07:29:45;;;;;;;21.98;12.43;;;20.30;99.90;;;;;;20752718;28;20026;-76
2021/07/22 07:39:46;;;;;;;24.87;12.30;;;20.60;99.90;;;;;;20752392;28;20052;-77
2021/07/22 07:49:47;;;;;;;22.67;12.27;;;21.20;99.90;;;;;;20751464;28;20033;-77
2021/07/22 07:59:47;;;;;;;27.23;11.73;;;21.50;99.90;;;;;;20733128;28;20034;-76
2021/07/22 08:09:48;;;;;;;18.97;9.93;;;22.00;99.90;;;;;;20750005;28;20089;-77
2021/07/22 08:19:49;;;;;;;19.13;9.47;;;22.60;99.90;;;;;;20749129;28;20025;-76
2021/07/22 08:29:50;;;;;;;17.50;8.90;;;23.00;99.90;;;;;;20748655;28;20026;-76
2021/07/22 08:39:54;;;;;;;15.60;8.97;;;23.30;99.90;;;;;;20755404;28;20030;-76
2021/07/22 08:49:55;;;;;;;17.80;10.00;;;24.50;99.90;;;;;;20746796;28;20041;-76
2021/07/22 08:59:57;;;;;;;14.85;8.63;;;25.00;99.90;;;;;;20728707;28;20444;-76
2021/07/22 09:10:05;;;;;;;15.70;8.80;;;24.90;99.90;;;;;;20753229;28;21817;-76
2021/07/22 09:20:28;;;;;;;15.65;9.05;;;25.90;99.90;;;;;;20767861;28;20548;-76
2021/07/22 09:30:29;;;;;;;14.50;9.85;;;25.90;99.90;;;;;;20815811;28;20040;-76
2021/07/22 09:40:34;;;;;;;15.15;9.20;;;26.30;99.90;;;;;;20820512;28;20037;-76
2021/07/22 09:50:41;;;;;;;18.92;9.32;;;26.20;99.90;;;;;;20818218;28;20030;-76
2021/07/22 10:00:46;;;;;;;17.63;9.25;;;27.00;99.90;;;;;;20823310;28;20026;-76
2021/07/22 10:10:52;;;;;;;14.18;9.52;;;26.90;99.90;;;;;;20806842;28;20037;-76
2021/07/22 10:20:59;;;;;;;13.93;9.25;;;26.90;99.90;;;;;;20826572;28;20025;-76
2021/07/22 10:31:04;;;;;;;23.02;9.77;;;26.80;99.90;;;;;;20805727;28;20034;-76
2021/07/22 10:41:05;;;;;;;17.52;10.07;;;26.70;99.90;;;;;;20805102;28;20112;-77
2021/07/22 10:51:12;;;;;;;17.83;9.40;;;27.30;99.90;;;;;;20826676;28;20053;-76
2021/07/22 11:01:13;;;;;;;13.38;9.05;;;27.70;99.90;;;;;;20819255;28;20060;-77
2021/07/22 11:11:15;;;;;;;20.90;10.35;;;27.50;99.90;;;;;;20836076;28;20496;-77
2021/07/22 11:21:19;;;;;;;19.08;10.25;;;27.90;99.90;;;;;;20836153;28;20030;-79
2021/07/22 11:31:20;;;;;;;16.75;9.90;;;27.90;99.90;;;;;;20834815;28;20527;-78
2021/07/22 11:51:29;;;;;;;16.20;11.10;;;28.60;99.90;;;;;;20763542;28;20068;-78
2021/07/22 12:01:30;;;;;;;18.13;10.55;;;28.50;99.90;;;;;;20752647;28;20392;-77
2021/07/22 12:11:51;;;;;;;16.45;10.25;;;28.10;99.90;;;;;;20754137;28;20058;-77
2021/07/22 12:22:23;;;;;;;22.70;10.87;;;28.60;99.90;;;;;;20737740;28;20030;-77
2021/07/22 12:32:25;;;;;;;18.45;10.82;;;28.40;99.90;;;;;;20762688;28;20479;-78
2021/07/22 12:42:26;;;;;;;17.73;10.27;;;28.80;99.90;;;;;;20760656;28;20034;-77
2021/07/22 12:52:27;;;;;;;21.08;10.32;;;28.70;99.90;;;;;;20749673;28;20033;-77
2021/07/22 13:02:28;;;;;;;19.08;11.25;;;28.60;99.90;;;;;;20748478;28;20370;-77
2021/07/22 13:12:32;;;;;;;20.15;10.85;;;29.20;99.90;;;;;;20727365;28;20026;-76
2021/07/22 13:22:33;;;;;;;28.42;10.98;;;28.90;99.90;;;;;;20743442;28;20038;-76
2021/07/22 13:32:35;;;;;;;21.95;9.98;;;29.10;99.90;;;;;;20744154;28;20510;-77
2021/07/22 13:42:38;;;;;;;20.17;10.57;;;28.80;99.90;;;;;;20743829;28;20050;-76
2021/07/22 13:52:39;;;;;;;13.65;9.68;;;29.60;99.90;;;;;;20726074;28;20025;-76
2021/07/22 14:02:40;;;;;;;24.25;11.13;;;29.80;99.90;;;;;;20725429;28;20030;-76
2021/07/22 14:12:41;;;;;;;18.23;10.60;;;29.20;99.90;;;;;;20742631;28;20037;-76
2021/07/22 14:22:42;;;;;;;14.85;9.82;;;29.50;99.90;;;;;;20743231;28;20031;-77
2021/07/22 14:32:43;;;;;;;18.45;11.80;;;29.60;99.90;;;;;;20765436;28;20033;-77
2021/07/22 14:42:44;;;;;;;17.00;10.30;;;29.80;99.90;;;;;;20757633;28;20042;-77
2021/07/22 14:52:45;;;;;;;14.30;10.00;;;29.40;99.90;;;;;;20738432;28;20441;-77
2021/07/22 15:02:45;;;;;;;22.02;10.40;;;29.60;99.90;;;;;;20755807;28;20052;-77
2021/07/22 15:12:47;;;;;;;20.50;10.02;;;29.90;99.90;;;;;;20757383;28;20034;-76
2021/07/22 15:22:48;;;;;;;19.73;11.23;;;29.30;99.90;;;;;;20783012;28;20061;-76
2021/07/22 15:32:49;;;;;;;17.70;10.77;;;29.10;99.90;;;;;;20781891;28;20085;-77
2021/07/22 15:42:50;;;;;;;18.63;10.48;;;29.40;99.90;;;;;;20747917;28;20500;-76
2021/07/22 15:52:54;;;;;;;15.57;10.50;;;28.80;99.90;;;;;;20767545;28;20037;-80
2021/07/22 16:02:55;;;;;;;24.00;10.57;;;28.70;99.90;;;;;;20775811;28;20037;-80
2021/07/22 16:12:56;;;;;;;22.13;13.75;;;28.40;99.90;;;;;;20740937;28;20037;-79
2021/07/22 16:22:58;;;;;;;13.25;8.48;;;28.30;99.90;;;;;;20743597;28;20040;-77
2021/07/22 16:33:01;;;;;;;13.43;8.00;;;27.50;99.90;;;;;;20763720;28;20040;-78
2021/07/22 16:43:02;;;;;;;12.50;7.18;;;27.20;99.90;;;;;;20741732;28;20029;-78
2021/07/22 16:53:03;;;;;;;13.68;7.28;;;27.10;99.90;;;;;;20740384;28;20036;-77
2021/07/22 17:03:04;;;;;;;17.23;7.38;;;27.00;99.90;;;;;;20684200;28;20065;-77
2021/07/22 17:13:06;;;;;;;11.95;6.82;;;26.90;99.90;;;;;;20692943;28;20079;-77
2021/07/22 17:23:07;;;;;;;16.67;7.22;;;26.70;99.90;;;;;;20744792;28;20030;-77
2021/07/22 17:33:08;;;;;;;12.35;7.50;;;26.60;99.90;;;;;;20744350;28;20060;-77
2021/07/22 17:43:08;;;;;;;11.68;7.22;;;26.70;99.90;;;;;;20769746;23;20132;-74
2021/07/22 17:53:10;;;;;;;;;;;26.40;99.90;;;;;;20825193;28;20395;-74
2021/07/22 18:03:11;;;;;;;14.07;8.20;;;25.90;99.90;;;;;;20834461;28;20379;-73
2021/07/22 18:13:12;;;;;;;;;;;25.60;99.90;;;;;;20841223;28;20064;-74
2021/07/22 18:23:13;;;;;;;15.75;8.10;;;25.40;99.90;;;;;;20839904;28;20357;-74
2021/07/22 18:33:20;;;;;;;;;;;25.10;99.90;;;;;;20839630;28;20511;-75
2021/07/22 18:43:20;;;;;;;16.40;8.65;;;24.50;99.90;;;;;;20838245;28;19913;-74
2021/07/22 18:53:21;;;;;;;14.97;8.77;;;23.90;99.90;;;;;;20837570;28;20391;-74
2021/07/22 19:03:22;;;;;;;18.03;8.67;;;23.50;99.90;;;;;;20837166;28;20116;-75
2021/07/22 19:13:23;;;;;;;24.67;9.57;;;23.00;99.90;;;;;;20834055;28;20295;-75
2021/07/22 19:23:24;;;;;;;12.77;8.53;;;22.40;99.90;;;;;;20833507;28;20064;-74
2021/07/22 19:33:26;;;;;;;16.23;8.73;;;21.90;99.90;;;;;;20834462;28;20022;-74
2021/07/22 19:43:26;;;;;;;13.30;8.98;;;21.20;99.90;;;;;;20833727;28;20053;-74
2021/07/22 19:53:27;;;;;;;17.00;9.63;;;20.80;99.90;;;;;;20834408;28;20029;-74
2021/07/22 20:03:28;;;;;;;18.17;9.87;;;20.60;99.90;;;;;;20832645;28;20076;-73
2021/07/22 20:13:31;;;;;;;12.57;8.53;;;20.10;99.90;;;;;;20831699;28;20057;-73
2021/07/22 20:23:32;;;;;;;14.00;8.80;;;20.20;99.90;;;;;;20830880;28;20487;-73
2021/07/22 20:33:35;;;;;;;18.58;9.57;;;20.30;99.90;;;;;;20829926;28;20036;-74
2021/07/22 20:43:38;;;;;;;15.10;9.47;;;20.10;99.90;;;;;;20827999;28;20116;-74
2021/07/22 20:53:41;;;;;;;13.88;9.15;;;20.10;99.90;;;;;;20828082;28;20029;-73
2021/07/22 21:03:42;;;;;;;13.65;9.13;;;19.20;99.90;;;;;;20827555;28;20037;-73
2021/07/22 21:13:43;;;;;;;14.70;8.70;;;19.10;99.90;;;;;;20826823;28;20480;-73
2021/07/22 21:23:47;;;;;;;17.50;9.23;;;19.50;99.90;;;;;;20802836;28;20437;-74
2021/07/22 21:33:48;;;;;;;14.55;8.30;;;19.80;99.90;;;;;;20769333;28;20499;-74
2021/07/22 21:43:49;;;;;;;13.33;8.60;;;19.60;99.90;;;;;;20794619;28;20036;-74
2021/07/22 21:53:54;;;;;;;15.95;8.23;;;19.60;99.90;;;;;;20903220;28;20043;-73
2021/07/22 22:03:54;;;;;;;16.52;9.27;;;19.10;99.90;;;;;;20905597;28;20095;-73
2021/07/22 22:13:55;;;;;;;33.13;9.53;;;18.70;99.90;;;;;;20906443;28;20033;-73
2021/07/22 22:23:56;;;;;;;15.40;8.80;;;18.40;99.90;;;;;;20906048;28;20029;-74
2021/07/22 22:33:59;;;;;;;17.70;8.73;;;18.00;99.90;;;;;;20880327;28;20030;-73
2021/07/22 22:44:00;;;;;;;12.13;8.18;;;17.80;99.90;;;;;;20824089;28;20381;-74
2021/07/22 22:54:01;;;;;;;14.00;8.60;;;17.70;99.90;;;;;;20837796;28;20052;-74
2021/07/22 23:04:02;;;;;;;14.50;8.60;;;17.50;99.90;;;;;;20836103;28;20392;-74
2021/07/22 23:14:03;;;;;;;16.37;8.97;;;17.30;99.90;;;;;;20836337;28;20029;-73
2021/07/22 23:24:04;;;;;;;11.20;8.07;;;17.00;99.90;;;;;;20835767;28;20037;-73
2021/07/22 23:34:05;;;;;;;19.63;9.40;;;16.80;99.90;;;;;;20834737;28;20037;-74
2021/07/22 23:44:06;;;;;;;17.60;9.17;;;16.70;99.90;;;;;;20843283;23;20069;-73
2021/07/22 23:54:06;;;;;;;14.00;9.47;;;16.70;99.90;;;;;;20833368;28;20109;-74
